createdAt,value
2023-04-04T00:00:14.505Z,100.00
2023-04-04T00:02:41.075Z,100.00
2023-04-04T00:05:08.510Z,100.00
2023-04-04T00:07:34.948Z,100.00
2023-04-04T00:10:01.365Z,100.00
2023-04-04T00:12:29.686Z,100.00
2023-04-04T00:14:57.433Z,100.00
2023-04-04T00:17:23.870Z,100.00
2023-04-04T00:19:50.481Z,100.00
2023-04-04T00:22:18.073Z,100.00
2023-04-04T00:24:44.434Z,100.00
2023-04-04T00:27:10.733Z,100.00
2023-04-04T00:29:37.267Z,100.00
2023-04-04T00:32:03.965Z,100.00
2023-04-04T00:34:30.252Z,100.00
2023-04-04T00:36:56.541Z,100.00
2023-04-04T00:39:23.660Z,100.00
2023-04-04T00:41:50.300Z,100.00
2023-04-04T00:44:16.894Z,100.00
2023-04-04T00:46:43.354Z,100.00
2023-04-04T00:49:09.742Z,100.00
2023-04-04T00:51:36.296Z,100.00
2023-04-04T00:54:03.162Z,100.00
2023-04-04T00:56:32.997Z,100.00
2023-04-04T00:59:00.788Z,100.00
2023-04-04T01:01:27.352Z,100.00
2023-04-04T01:03:53.985Z,100.00
2023-04-04T01:06:20.686Z,100.00
2023-04-04T01:08:47.976Z,100.00
2023-04-04T01:11:15.446Z,100.00
2023-04-04T01:13:43.298Z,100.00
2023-04-04T01:16:09.663Z,100.00
2023-04-04T01:18:38.332Z,100.00
2023-04-04T01:21:11.763Z,100.00
2023-04-04T01:24:16.486Z,100.00
2023-04-04T01:26:42.860Z,100.00
2023-04-04T01:29:09.221Z,100.00
2023-04-04T01:31:41.077Z,100.00
2023-04-04T01:34:12.009Z,100.00
2023-04-04T01:36:55.530Z,100.00
2023-04-04T01:39:24.556Z,100.00
2023-04-04T01:41:51.811Z,100.00
2023-04-04T01:44:18.894Z,100.00
2023-04-04T01:46:45.203Z,100.00
2023-04-04T01:49:11.604Z,100.00
2023-04-04T01:51:38.798Z,100.00
2023-04-04T01:54:05.112Z,100.00
2023-04-04T01:56:32.758Z,100.00
2023-04-04T01:58:59.088Z,100.00
2023-04-04T02:01:25.444Z,100.00
2023-04-04T02:03:51.904Z,100.00
2023-04-04T02:06:18.254Z,100.00
2023-04-04T02:08:44.590Z,100.00
2023-04-04T02:11:10.879Z,100.00
2023-04-04T02:13:41.119Z,100.00
2023-04-04T02:16:07.575Z,100.00
2023-04-04T02:18:34.296Z,100.00
2023-04-04T02:21:00.676Z,100.00
2023-04-04T02:23:27.078Z,100.00
2023-04-04T02:25:53.430Z,100.00
2023-04-04T02:28:20.504Z,100.00
2023-04-04T02:30:47.096Z,100.00
2023-04-04T02:33:13.395Z,100.00
2023-04-04T02:35:39.794Z,100.00
2023-04-04T02:38:06.511Z,100.00
2023-04-04T02:40:32.916Z,100.00
2023-04-04T02:42:59.290Z,100.00
2023-04-04T02:45:25.740Z,100.00
2023-04-04T02:47:52.487Z,100.00
2023-04-04T02:50:19.103Z,100.00
2023-04-04T02:52:45.614Z,100.00
2023-04-04T02:55:11.900Z,100.00
2023-04-04T02:57:38.216Z,100.00
2023-04-04T03:00:05.073Z,100.00
2023-04-04T03:02:31.530Z,100.00
2023-04-04T03:04:57.969Z,100.00
2023-04-04T03:07:24.324Z,100.00
2023-04-04T03:09:50.788Z,100.00
2023-04-04T03:12:21.284Z,100.00
2023-04-04T03:14:47.813Z,100.00
2023-04-04T03:17:15.252Z,100.00
2023-04-04T03:19:41.989Z,100.00
2023-04-04T03:22:08.262Z,100.00
2023-04-04T03:24:35.564Z,100.00
2023-04-04T03:27:01.933Z,100.00
2023-04-04T03:29:28.341Z,100.00
2023-04-04T03:31:54.981Z,100.00
2023-04-04T03:34:24.578Z,100.00
2023-04-04T03:36:52.680Z,100.00
2023-04-04T03:39:19.304Z,100.00
2023-04-04T03:41:45.676Z,100.00
2023-04-04T03:44:12.001Z,100.00
2023-04-04T03:46:38.294Z,100.00
2023-04-04T03:49:04.585Z,100.00
2023-04-04T03:51:31.588Z,100.00
2023-04-04T03:53:57.852Z,100.00
2023-04-04T03:56:24.196Z,100.00
2023-04-04T03:58:50.627Z,100.00
2023-04-04T04:01:16.972Z,100.00
2023-04-04T04:03:43.315Z,100.00
2023-04-04T04:06:09.685Z,100.00
2023-04-04T04:08:36.004Z,100.00
2023-04-04T04:11:06.719Z,100.00
2023-04-04T04:13:34.197Z,100.00
2023-04-04T04:16:00.517Z,100.00
2023-04-04T04:18:27.406Z,100.00
2023-04-04T04:20:59.141Z,100.00
2023-04-04T04:23:25.977Z,100.00
2023-04-04T04:25:52.315Z,100.00
2023-04-04T04:28:18.695Z,100.00
2023-04-04T04:30:46.095Z,100.00
2023-04-04T04:33:12.840Z,100.00
2023-04-04T04:35:40.841Z,100.00
2023-04-04T04:38:07.274Z,100.00
2023-04-04T04:40:36.728Z,100.00
2023-04-04T04:43:03.136Z,100.00
2023-04-04T04:45:29.466Z,100.00
2023-04-04T04:47:55.980Z,100.00
2023-04-04T04:50:22.408Z,100.00
2023-04-04T04:52:51.814Z,100.00
2023-04-04T04:55:18.473Z,100.00
2023-04-04T04:57:47.118Z,100.00
2023-04-04T05:00:13.943Z,100.00
2023-04-04T05:02:40.535Z,100.00
2023-04-04T05:05:07.393Z,100.00
2023-04-04T05:07:33.737Z,100.00
2023-04-04T05:10:00.113Z,100.00
2023-04-04T05:12:27.051Z,100.00
2023-04-04T05:14:53.756Z,100.00
2023-04-04T05:17:20.015Z,100.00
2023-04-04T05:19:46.459Z,100.00
2023-04-04T05:22:12.773Z,100.00
2023-04-04T05:24:39.532Z,100.00
2023-04-04T05:27:06.110Z,100.00
2023-04-04T05:29:33.374Z,100.00
2023-04-04T05:31:59.671Z,100.00
2023-04-04T05:34:27.159Z,100.00
2023-04-04T05:36:53.812Z,100.00
2023-04-04T05:39:20.092Z,100.00
2023-04-04T05:41:46.348Z,100.00
2023-04-04T05:44:12.668Z,100.00
2023-04-04T05:46:39.048Z,100.00
2023-04-04T05:49:05.778Z,100.00
2023-04-04T05:51:32.191Z,100.00
2023-04-04T05:53:58.785Z,100.00
2023-04-04T05:56:25.145Z,100.00
2023-04-04T05:58:51.912Z,100.00
2023-04-04T06:01:18.448Z,100.00
2023-04-04T06:03:44.865Z,100.00
2023-04-04T06:06:11.242Z,100.00
2023-04-04T06:08:50.217Z,100.00
2023-04-04T06:11:19.021Z,100.00
2023-04-04T06:13:45.315Z,100.00
2023-04-04T06:16:11.792Z,100.00
2023-04-04T06:18:38.242Z,100.00
2023-04-04T06:21:04.601Z,100.00
2023-04-04T06:23:31.289Z,100.00
2023-04-04T06:25:57.660Z,100.00
2023-04-04T06:28:23.958Z,100.00
2023-04-04T06:30:50.636Z,100.00
2023-04-04T06:33:16.960Z,100.00
2023-04-04T06:35:44.444Z,100.00
2023-04-04T06:38:10.735Z,100.00
2023-04-04T06:40:37.468Z,100.00
2023-04-04T06:43:04.952Z,100.00
2023-04-04T06:45:33.572Z,100.00
2023-04-04T06:47:59.928Z,100.00
2023-04-04T06:50:27.130Z,100.00
2023-04-04T06:52:55.540Z,100.00
2023-04-04T06:55:22.484Z,100.00
2023-04-04T06:57:50.937Z,100.00
2023-04-04T07:00:17.539Z,100.00
2023-04-04T07:02:43.929Z,100.00
2023-04-04T07:05:10.691Z,100.00
2023-04-04T07:07:36.960Z,100.00
2023-04-04T07:10:03.415Z,100.00
2023-04-04T07:12:31.311Z,100.00
2023-04-04T07:14:57.627Z,100.00
2023-04-04T07:17:25.346Z,100.00
2023-04-04T07:19:52.034Z,100.00
2023-04-04T07:22:18.383Z,100.00
2023-04-04T07:24:44.988Z,100.00
2023-04-04T07:27:11.600Z,100.00
2023-04-04T07:29:37.973Z,100.00
2023-04-04T07:32:04.341Z,100.00
2023-04-04T07:34:30.883Z,100.00
2023-04-04T07:36:57.268Z,100.00
2023-04-04T07:39:23.632Z,100.00
2023-04-04T07:41:49.964Z,100.00
2023-04-04T07:44:16.426Z,100.00
2023-04-04T07:46:42.727Z,100.00
2023-04-04T07:49:09.192Z,100.00
2023-04-04T07:51:36.022Z,100.00
2023-04-04T07:54:02.978Z,100.00
2023-04-04T07:56:29.358Z,100.00
2023-04-04T07:58:55.770Z,100.00
2023-04-04T08:01:22.184Z,100.00
2023-04-04T08:03:50.057Z,100.00
2023-04-04T08:06:16.550Z,100.00
2023-04-04T08:08:42.849Z,100.00
2023-04-04T08:11:09.125Z,100.00
2023-04-04T08:13:35.613Z,100.00
2023-04-04T08:16:01.990Z,100.00
2023-04-04T08:18:28.316Z,100.00
2023-04-04T08:20:55.194Z,100.00
2023-04-04T08:23:21.566Z,100.00
2023-04-04T08:25:49.677Z,100.00
2023-04-04T08:28:16.226Z,100.00
2023-04-04T08:30:42.659Z,100.00
2023-04-04T08:33:23.363Z,100.00
2023-04-04T08:35:56.089Z,100.00
2023-04-04T08:38:22.982Z,100.00
2023-04-04T08:40:49.933Z,100.00
2023-04-04T08:43:19.343Z,100.00
2023-04-04T08:45:46.962Z,100.00
2023-04-04T08:48:16.414Z,100.00
2023-04-04T08:50:43.716Z,100.00
2023-04-04T08:53:11.686Z,100.00
2023-04-04T08:55:38.712Z,100.00
2023-04-04T08:58:06.263Z,100.00
2023-04-04T09:00:32.714Z,100.00
2023-04-04T09:03:09.547Z,100.00
2023-04-04T09:05:37.013Z,100.00
2023-04-04T09:08:05.786Z,100.00
2023-04-04T09:10:32.228Z,100.00
2023-04-04T09:13:12.293Z,100.00
2023-04-04T09:15:47.006Z,99.85
2023-04-04T09:18:13.325Z,94.34
2023-04-04T09:20:44.938Z,87.08
2023-04-04T09:23:13.821Z,87.79
2023-04-04T09:28:23.551Z,74.40
2023-04-04T09:30:51.439Z,69.41
2023-04-04T09:33:20.136Z,66.79
2023-04-04T09:35:52.330Z,64.13
2023-04-04T09:38:20.818Z,63.50
2023-04-04T09:40:47.979Z,69.51
2023-04-04T09:43:14.448Z,66.25
2023-04-04T09:45:44.911Z,72.99
2023-04-04T09:48:11.810Z,80.33
2023-04-04T09:50:45.986Z,76.92
2023-04-04T09:53:18.850Z,86.66
2023-04-04T09:55:53.754Z,87.76
2023-04-04T09:58:26.705Z,72.02
2023-04-04T10:00:59.565Z,77.57
2023-04-04T10:03:27.578Z,65.37
2023-04-04T10:06:04.846Z,67.71
2023-04-04T10:08:34.068Z,62.77
2023-04-04T10:11:11.517Z,68.51
2023-04-04T10:13:44.137Z,61.59
2023-04-04T10:16:11.721Z,59.80
2023-04-04T10:18:39.000Z,58.33
2023-04-04T10:23:39.411Z,58.17
2023-04-04T10:26:06.028Z,58.00
2023-04-04T10:28:32.587Z,56.42
2023-04-04T10:31:10.928Z,56.44
2023-04-04T10:33:43.553Z,54.99
2023-04-04T10:36:12.298Z,52.17
2023-04-04T10:38:43.500Z,51.32
2023-04-04T10:41:11.609Z,53.26
2023-04-04T10:43:44.569Z,54.08
2023-04-04T10:46:19.090Z,53.84
2023-04-04T10:48:45.907Z,50.97
2023-04-04T10:51:14.703Z,50.81
2023-04-04T10:53:41.954Z,51.83
2023-04-04T10:56:09.886Z,54.58
2023-04-04T10:58:41.618Z,52.92
2023-04-04T11:01:08.491Z,52.09
2023-04-04T11:04:12.658Z,52.47
2023-04-04T11:07:05.241Z,49.00
2023-04-04T11:09:51.633Z,48.74
2023-04-04T11:12:47.568Z,48.76
2023-04-04T11:15:14.583Z,50.04
2023-04-04T11:17:44.866Z,56.47
2023-04-04T11:20:15.248Z,52.43
2023-04-04T11:22:45.608Z,53.51
2023-04-04T11:25:34.814Z,53.04
2023-04-04T11:28:09.437Z,48.85
2023-04-04T11:30:39.277Z,48.35
2023-04-04T11:33:07.772Z,49.55
2023-04-04T11:35:38.843Z,53.96
2023-04-04T11:38:12.865Z,55.02
2023-04-04T11:40:41.314Z,52.19
2023-04-04T11:43:09.815Z,52.77
2023-04-04T11:45:37.347Z,55.21
2023-04-04T11:48:06.060Z,55.08
2023-04-04T11:50:40.249Z,56.39
2023-04-04T11:53:11.027Z,54.07
2023-04-04T11:55:47.344Z,52.03
2023-04-04T11:58:16.373Z,59.06
2023-04-04T12:00:43.954Z,51.51
2023-04-04T12:03:12.627Z,53.90
2023-04-04T12:05:41.134Z,58.66
2023-04-04T12:08:10.214Z,53.90
2023-04-04T12:10:38.934Z,51.27
2023-04-04T12:13:07.490Z,50.74
2023-04-04T12:15:37.849Z,52.23
2023-04-04T12:18:07.753Z,51.36
2023-04-04T12:20:34.698Z,53.65
2023-04-04T12:23:01.061Z,53.80
2023-04-04T12:25:33.797Z,55.94
2023-04-04T12:28:02.468Z,51.46
2023-04-04T12:30:29.465Z,54.21
2023-04-04T12:32:56.223Z,51.11
2023-04-04T12:35:22.628Z,51.08
2023-04-04T12:38:02.312Z,51.20
2023-04-04T12:40:33.251Z,53.24
2023-04-04T12:43:01.166Z,51.11
2023-04-04T12:45:27.995Z,51.17
2023-04-04T12:47:55.638Z,52.72
2023-04-04T12:50:23.757Z,53.13
2023-04-04T12:52:54.124Z,56.13
2023-04-04T12:55:23.665Z,51.02
2023-04-04T12:57:50.907Z,50.96
2023-04-04T13:00:19.740Z,54.74
2023-04-04T13:02:49.711Z,50.67
2023-04-04T13:05:18.291Z,48.38
2023-04-04T13:07:44.858Z,48.45
2023-04-04T13:10:14.678Z,49.92
2023-04-04T13:12:58.298Z,51.07
2023-04-04T13:15:49.090Z,49.24
2023-04-04T13:18:18.465Z,49.38
2023-04-04T13:20:44.955Z,48.58
2023-04-04T13:23:11.381Z,47.61
2023-04-04T13:25:38.476Z,47.92
2023-04-04T13:28:05.831Z,47.42
2023-04-04T13:30:32.335Z,49.38
2023-04-04T13:32:58.652Z,51.65
2023-04-04T13:35:26.700Z,48.26
2023-04-04T13:37:53.189Z,48.82
2023-04-04T13:40:19.928Z,48.54
2023-04-04T13:42:46.244Z,48.16
2023-04-04T13:45:13.394Z,50.30
2023-04-04T13:47:39.940Z,50.64
2023-04-04T13:50:07.220Z,49.59
2023-04-04T13:52:33.535Z,48.32
2023-04-04T13:54:59.840Z,46.14
2023-04-04T13:57:27.338Z,48.14
2023-04-04T13:59:56.157Z,48.83
2023-04-04T14:02:23.075Z,46.99
2023-04-04T14:04:49.471Z,50.13
2023-04-04T14:07:17.363Z,51.82
2023-04-04T14:09:43.748Z,54.62
2023-04-04T14:12:10.142Z,53.64
2023-04-04T14:14:37.927Z,53.99
2023-04-04T14:17:04.447Z,52.54
2023-04-04T14:19:31.007Z,57.68
2023-04-04T14:21:57.285Z,52.47
2023-04-04T14:24:23.743Z,49.58
2023-04-04T14:26:50.775Z,53.92
2023-04-04T14:29:17.240Z,50.03
2023-04-04T14:31:43.631Z,49.01
2023-04-04T14:34:10.660Z,53.44
2023-04-04T14:36:37.123Z,51.68
2023-04-04T14:39:03.803Z,50.43
2023-04-04T14:41:30.148Z,50.48
2023-04-04T14:43:56.463Z,51.51
2023-04-04T14:46:23.422Z,52.38
2023-04-04T14:48:49.812Z,50.19
2023-04-04T14:51:16.787Z,55.24
2023-04-04T14:53:43.138Z,51.75
2023-04-04T14:56:09.465Z,54.88
2023-04-04T14:58:35.845Z,53.02
2023-04-04T15:01:03.455Z,52.32
2023-04-04T15:03:29.932Z,55.19
2023-04-04T15:05:56.703Z,55.51
2023-04-04T15:08:23.387Z,55.04
2023-04-04T15:10:49.789Z,55.54
2023-04-04T15:13:16.153Z,55.08
2023-04-04T15:15:42.535Z,56.96
2023-04-04T15:18:08.891Z,59.03
2023-04-04T15:20:39.991Z,59.26
2023-04-04T15:23:07.035Z,59.41
2023-04-04T15:25:33.524Z,58.46
2023-04-04T15:28:02.760Z,55.93
2023-04-04T15:30:29.645Z,55.68
2023-04-04T15:32:56.871Z,56.26
2023-04-04T15:35:23.575Z,59.88
2023-04-04T15:37:49.988Z,53.30
2023-04-04T15:40:17.467Z,55.02
2023-04-04T15:42:44.620Z,58.80
2023-04-04T15:45:13.124Z,58.75
2023-04-04T15:47:40.073Z,57.82
2023-04-04T15:50:07.188Z,57.28
2023-04-04T15:52:33.699Z,57.86
2023-04-04T15:55:00.050Z,63.08
2023-04-04T15:57:27.050Z,66.06
2023-04-04T15:59:53.447Z,59.31
2023-04-04T16:02:19.859Z,62.70
2023-04-04T16:04:47.247Z,63.06
2023-04-04T16:07:13.711Z,62.09
2023-04-04T16:09:40.257Z,71.19
2023-04-04T16:12:06.782Z,68.85
2023-04-04T16:14:33.113Z,65.61
2023-04-04T16:17:02.570Z,66.48
2023-04-04T16:19:28.870Z,64.83
2023-04-04T16:21:55.683Z,65.03
2023-04-04T16:24:32.817Z,71.94
2023-04-04T16:26:59.283Z,71.48
2023-04-04T16:29:25.652Z,64.64
2023-04-04T16:31:53.134Z,67.48
2023-04-04T16:34:19.633Z,65.15
2023-04-04T16:36:46.223Z,64.48
2023-04-04T16:39:13.382Z,66.82
2023-04-04T16:41:40.917Z,66.70
2023-04-04T16:44:07.355Z,62.79
2023-04-04T16:46:33.839Z,64.58
2023-04-04T16:49:00.328Z,63.57
2023-04-04T16:51:27.772Z,63.11
2023-04-04T16:53:54.365Z,66.58
2023-04-04T16:56:20.861Z,66.98
2023-04-04T16:58:47.233Z,70.25
2023-04-04T17:01:15.229Z,67.04
2023-04-04T17:03:41.634Z,66.70
2023-04-04T17:06:08.248Z,63.84
2023-04-04T17:08:34.600Z,67.10
2023-04-04T17:11:00.952Z,64.16
2023-04-04T17:13:27.280Z,68.87
2023-04-04T17:15:53.614Z,71.46
2023-04-04T17:18:20.168Z,80.10
2023-04-04T17:20:47.740Z,79.71
2023-04-04T17:23:14.107Z,86.80
2023-04-04T17:25:40.403Z,89.51
2023-04-04T17:28:07.407Z,92.45
2023-04-04T17:30:34.103Z,92.12
2023-04-04T17:33:00.657Z,90.28
2023-04-04T17:35:27.559Z,95.82
2023-04-04T17:37:53.984Z,92.27
2023-04-04T17:40:20.457Z,92.71
2023-04-04T17:42:46.928Z,96.08
2023-04-04T17:45:13.986Z,99.33
2023-04-04T17:47:40.333Z,100.00
2023-04-04T17:50:07.275Z,100.00
2023-04-04T17:52:34.367Z,100.00
2023-04-04T17:55:00.701Z,100.00
2023-04-04T17:57:27.138Z,100.00
2023-04-04T17:59:53.541Z,100.00
2023-04-04T18:02:19.991Z,100.00
2023-04-04T18:04:51.270Z,100.00
2023-04-04T18:07:19.064Z,100.00
2023-04-04T18:09:45.883Z,100.00
2023-04-04T18:12:12.481Z,100.00
2023-04-04T18:14:38.941Z,100.00
2023-04-04T18:17:05.312Z,100.00
2023-04-04T18:19:31.790Z,100.00
2023-04-04T18:21:59.937Z,100.00
2023-04-04T18:24:27.879Z,100.00
2023-04-04T18:26:54.304Z,100.00
2023-04-04T18:29:20.872Z,100.00
2023-04-04T18:31:47.311Z,100.00
2023-04-04T18:34:15.168Z,100.00
2023-04-04T18:36:41.540Z,100.00
2023-04-04T18:39:08.983Z,100.00
2023-04-04T18:41:35.778Z,100.00
2023-04-04T18:44:02.276Z,100.00
2023-04-04T18:46:28.644Z,100.00
2023-04-04T18:48:55.364Z,100.00
2023-04-04T18:51:23.458Z,100.00
2023-04-04T18:53:50.120Z,100.00
2023-04-04T18:56:16.461Z,100.00
2023-04-04T18:58:42.849Z,100.00
2023-04-04T19:01:11.703Z,100.00
2023-04-04T19:03:41.973Z,100.00
2023-04-04T19:06:11.557Z,100.00
2023-04-04T19:08:42.274Z,100.00
2023-04-04T19:11:09.631Z,100.00
2023-04-04T19:13:36.273Z,100.00
2023-04-04T19:16:02.815Z,100.00
2023-04-04T19:18:29.181Z,100.00
2023-04-04T19:20:55.505Z,100.00
2023-04-04T19:23:22.051Z,100.00
2023-04-04T19:25:48.413Z,100.00
2023-04-04T19:28:15.235Z,100.00
2023-04-04T19:30:49.833Z,100.00
2023-04-04T19:33:18.500Z,100.00
2023-04-04T19:36:09.690Z,100.00
2023-04-04T19:38:37.524Z,100.00
2023-04-04T19:41:32.609Z,100.00
2023-04-04T19:43:59.484Z,100.00
2023-04-04T19:46:27.972Z,100.00
2023-04-04T19:48:59.262Z,100.00
2023-04-04T19:51:26.394Z,100.00
2023-04-04T19:53:57.634Z,100.00
2023-04-04T19:56:25.991Z,100.00
2023-04-04T19:59:04.442Z,100.00
2023-04-04T20:01:34.749Z,100.00
2023-04-04T20:04:09.349Z,100.00
2023-04-04T20:06:37.176Z,100.00
2023-04-04T20:09:26.706Z,100.00
2023-04-04T20:11:53.010Z,100.00
2023-04-04T20:14:22.029Z,100.00
2023-04-04T20:16:49.406Z,100.00
2023-04-04T20:19:18.968Z,100.00
2023-04-04T20:21:45.508Z,100.00
2023-04-04T20:24:17.270Z,100.00
2023-04-04T20:26:56.647Z,100.00
2023-04-04T20:29:33.908Z,100.00
2023-04-04T20:32:07.041Z,100.00
2023-04-04T20:34:39.001Z,100.00
2023-04-04T20:37:08.806Z,100.00
2023-04-04T20:39:59.586Z,100.00
2023-04-04T20:42:25.934Z,100.00
2023-04-04T20:44:53.220Z,100.00
2023-04-04T20:47:40.746Z,100.00
2023-04-04T20:50:27.465Z,100.00
2023-04-04T20:53:01.576Z,100.00
2023-04-04T20:55:30.259Z,100.00
2023-04-04T20:58:07.266Z,100.00
2023-04-04T21:00:33.863Z,100.00
2023-04-04T21:03:08.921Z,100.00
2023-04-04T21:05:38.560Z,100.00
2023-04-04T21:08:29.468Z,100.00
2023-04-04T21:10:57.531Z,100.00
2023-04-04T21:13:30.246Z,100.00
2023-04-04T21:16:07.803Z,100.00
2023-04-04T21:18:34.850Z,100.00
2023-04-04T21:21:16.800Z,100.00
2023-04-04T21:23:46.070Z,100.00
2023-04-04T21:26:34.033Z,100.00
2023-04-04T21:29:04.927Z,100.00
2023-04-04T21:31:39.644Z,100.00
2023-04-04T21:34:16.014Z,100.00
2023-04-04T21:36:43.650Z,100.00
2023-04-04T21:39:12.968Z,100.00
2023-04-04T21:41:40.251Z,100.00
2023-04-04T21:44:08.477Z,100.00
2023-04-04T21:46:37.517Z,100.00
2023-04-04T21:49:05.872Z,100.00
2023-04-04T21:51:32.797Z,100.00
2023-04-04T21:54:00.183Z,100.00
2023-04-04T21:56:32.949Z,100.00
2023-04-04T21:59:01.074Z,100.00
2023-04-04T22:01:27.763Z,100.00
2023-04-04T22:03:54.209Z,100.00
2023-04-04T22:06:22.974Z,100.00
2023-04-04T22:08:49.288Z,100.00
2023-04-04T22:11:19.438Z,100.00
2023-04-04T22:13:48.022Z,100.00
2023-04-04T22:16:16.028Z,100.00
2023-04-04T22:18:47.826Z,100.00
2023-04-04T22:21:15.224Z,100.00
2023-04-04T22:23:42.290Z,100.00
2023-04-04T22:26:13.582Z,100.00
2023-04-04T22:28:41.871Z,100.00
2023-04-04T22:31:08.983Z,100.00
2023-04-04T22:33:35.327Z,100.00
2023-04-04T22:36:02.272Z,100.00
2023-04-04T22:38:29.377Z,100.00
2023-04-04T22:40:56.426Z,100.00
2023-04-04T22:43:22.946Z,100.00
2023-04-04T22:45:49.641Z,100.00
2023-04-04T22:48:17.081Z,100.00
2023-04-04T22:50:44.667Z,100.00
2023-04-04T22:53:12.973Z,100.00
2023-04-04T22:55:40.253Z,100.00
2023-04-04T22:58:07.655Z,100.00
2023-04-04T23:00:34.822Z,100.00
2023-04-04T23:03:02.221Z,100.00
2023-04-04T23:05:29.152Z,100.00
2023-04-04T23:07:56.616Z,100.00
2023-04-04T23:10:22.981Z,100.00
2023-04-04T23:12:49.277Z,100.00
2023-04-04T23:15:16.812Z,100.00
2023-04-04T23:17:43.308Z,100.00
2023-04-04T23:20:09.956Z,100.00
2023-04-04T23:22:37.753Z,100.00
2023-04-04T23:25:07.832Z,100.00
2023-04-04T23:27:34.935Z,100.00
2023-04-04T23:30:04.514Z,100.00
2023-04-04T23:32:32.053Z,100.00
2023-04-04T23:34:58.540Z,100.00
2023-04-04T23:37:25.021Z,100.00
2023-04-04T23:39:51.313Z,100.00
2023-04-04T23:42:17.655Z,100.00
2023-04-04T23:44:43.944Z,100.00
2023-04-04T23:47:10.902Z,100.00
2023-04-04T23:49:37.559Z,100.00
2023-04-04T23:52:05.922Z,100.00
2023-04-04T23:54:32.296Z,100.00
2023-04-04T23:56:58.634Z,100.00
2023-04-04T23:59:25.779Z,100.00
